Time;durP1;ratioP1;P1;durP2;ratioP2;P2;SDS_P1;SDS_P2;PMS_P1;PMS_P2;Temp;Humidity;BMP_temperature;BMP_pressure;BME280_temperature;BME280_humidity;BME280_pressure;Samples;Min_cycle;Max_cycle;Signal;HPM_P1;HPM_P2
2022/12/24 00:00:04;;;;;;;24.60;6.18;;;;;;;14.15;63.64;100513.00;5076405;28;20127;-70
2022/12/24 00:02:32;;;;;;;24.63;6.15;;;;;;;14.13;63.65;100514.13;5091305;28;20105;-70
2022/12/24 00:05:01;;;;;;;26.40;7.63;;;;;;;14.10;63.41;100519.78;5096525;28;20044;-69
2022/12/24 00:07:28;;;;;;;32.08;6.68;;;;;;;14.09;63.96;100527.03;5096755;28;20051;-69
2022/12/24 00:09:55;;;;;;;27.85;7.00;;;;;;;14.06;63.95;100526.44;5086753;28;20469;-69
2022/12/24 00:12:22;;;;;;;24.40;6.30;;;;;;;14.05;63.80;100527.44;5076154;28;20037;-69
2022/12/24 00:14:49;;;;;;;25.95;7.18;;;;;;;14.05;64.09;100532.84;5091159;28;20380;-69
2022/12/24 00:17:15;;;;;;;22.73;6.45;;;;;;;14.04;63.67;100539.25;5096300;28;20120;-69
2022/12/24 00:19:42;;;;;;;27.63;7.05;;;;;;;14.02;64.08;100533.97;5094988;28;20048;-70
2022/12/24 00:22:09;;;;;;;34.15;7.80;;;;;;;14.01;63.82;100537.66;5096058;28;20040;-70
2022/12/24 00:24:36;;;;;;;38.10;7.25;;;;;;;14.00;64.01;100547.63;5093895;28;20482;-70
2022/12/24 00:27:04;;;;;;;28.38;7.18;;;;;;;13.97;63.64;100547.03;5096076;28;20048;-69
2022/12/24 00:29:32;;;;;;;33.63;7.18;;;;;;;13.97;64.07;100552.44;5096052;28;20416;-69
2022/12/24 00:31:59;;;;;;;27.52;6.55;;;;;;;13.95;63.88;100549.88;5095873;28;20482;-69
2022/12/24 00:34:26;;;;;;;33.28;7.60;;;;;;;13.96;63.71;100556.97;5095928;28;20044;-69
2022/12/24 00:36:52;;;;;;;29.83;7.10;;;;;;;13.96;63.89;100567.78;5094962;28;20556;-69
2022/12/24 00:39:19;;;;;;;30.95;7.25;;;;;;;13.96;63.75;100566.94;5083479;28;20047;-69
2022/12/24 00:41:45;;;;;;;30.83;7.75;;;;;;;13.95;63.82;100562.53;5095626;28;20494;-69
2022/12/24 00:44:12;;;;;;;33.78;8.10;;;;;;;13.96;64.08;100569.63;5095893;28;20048;-70
2022/12/24 00:46:40;;;;;;;37.15;8.35;;;;;;;13.98;64.04;100575.75;5093464;28;20554;-70
2022/12/24 00:49:09;;;;;;;27.85;8.20;;;;;;;13.99;64.19;100577.44;5093956;28;20040;-69
2022/12/24 00:51:36;;;;;;;36.40;8.27;;;;;;;14.02;63.96;100579.88;5085431;28;20098;-70
2022/12/24 00:54:04;;;;;;;27.67;8.63;;;;;;;14.01;63.97;100580.88;5074258;28;20079;-70
2022/12/24 00:56:31;;;;;;;31.00;7.45;;;;;;;14.00;64.34;100585.41;5075407;28;20047;-71
2022/12/24 00:58:57;;;;;;;32.22;8.70;;;;;;;14.02;63.99;100587.13;5080119;28;20114;-70
2022/12/24 01:01:25;;;;;;;37.53;7.68;;;;;;;14.02;63.97;100598.78;5095354;28;20044;-69
2022/12/24 01:05:09;;;;;;;32.10;8.73;;;;;;;14.01;63.76;100597.06;5095155;28;20094;-69
2022/12/24 01:06:39;;;;;;;35.78;8.85;;;;;;;14.02;63.77;100606.03;5094520;28;20047;-70
2022/12/24 01:09:06;;;;;;;35.65;10.00;;;;;;;13.99;64.03;100610.72;5095393;28;20040;-69
2022/12/24 01:11:33;;;;;;;28.05;8.85;;;;;;;13.98;63.92;100610.84;5093881;28;20051;-70
2022/12/24 01:13:59;;;;;;;30.10;8.70;;;;;;;13.95;64.06;100605.72;5095315;28;20040;-70
2022/12/24 01:16:26;;;;;;;28.80;8.98;;;;;;;13.93;63.87;100615.81;5095293;28;20040;-69
2022/12/24 01:18:52;;;;;;;33.42;8.93;;;;;;;13.92;64.12;100608.69;5095343;28;20080;-70
2022/12/24 01:21:19;;;;;;;29.38;8.05;;;;;;;13.92;64.21;100609.53;5095005;28;20375;-70
2022/12/24 01:23:46;;;;;;;24.10;8.20;;;;;;;13.93;64.22;100616.66;5082577;28;20060;-70
2022/12/24 01:26:12;;;;;;;30.00;9.10;;;;;;;13.93;64.28;100622.06;5074821;28;20498;-69
2022/12/24 01:28:39;;;;;;;35.72;8.45;;;;;;;13.93;64.12;100627.44;5074851;28;20037;-70
2022/12/24 01:31:11;;;;;;;35.35;9.05;;;;;;;13.94;64.00;100622.91;5073716;28;20390;-70
2022/12/24 01:33:38;;;;;;;28.73;8.98;;;;;;;13.93;64.20;100629.31;5074539;28;20045;-70
2022/12/24 01:36:04;;;;;;;35.13;8.63;;;;;;;13.94;64.20;100636.41;5074385;28;20090;-71
2022/12/24 01:38:31;;;;;;;30.92;9.35;;;;;;;13.93;63.84;100637.41;5074523;28;20486;-70
2022/12/24 01:43:43;;;;;;;32.67;8.73;;;;;;;13.96;64.05;100642.53;5074274;28;20047;-70
2022/12/24 01:46:26;;;;;;;32.90;8.18;;;;;;;13.94;63.98;100641.81;5074350;28;20036;-69
2022/12/24 01:48:57;;;;;;;32.97;8.73;;;;;;;13.94;63.89;100648.06;5074394;28;20048;-70
2022/12/24 01:51:32;;;;;;;29.55;8.65;;;;;;;13.93;63.64;100642.78;5074324;28;20045;-70
2022/12/24 01:54:03;;;;;;;;;;;;;;;13.94;63.63;100642.66;5074644;28;20062;-70
2022/12/24 01:56:32;;;;;;;25.75;8.57;;;;;;;13.98;63.77;100652.19;5074515;28;20030;-70
2022/12/24 01:59:09;;;;;;;31.05;8.40;;;;;;;13.93;63.61;100653.59;5078790;28;20050;-69
2022/12/24 02:01:36;;;;;;;35.72;8.85;;;;;;;13.92;63.42;100657.28;5082643;28;20032;-70
2022/12/24 02:04:15;;;;;;;28.75;7.93;;;;;;;13.88;63.41;100664.81;5073892;28;20045;-69
2022/12/24 02:06:42;;;;;;;29.50;9.05;;;;;;;13.85;63.69;100666.91;5074369;28;20075;-69
2022/12/24 02:09:09;;;;;;;37.58;9.18;;;;;;;13.80;63.77;100675.41;5073997;28;20082;-70
2022/12/24 02:11:40;;;;;;;32.92;7.95;;;;;;;13.76;63.63;100687.47;5084648;28;20394;-70
2022/12/24 02:14:07;;;;;;;29.80;7.93;;;;;;;13.75;63.38;100682.19;5093966;28;20048;-69
2022/12/24 02:16:45;;;;;;;30.58;9.02;;;;;;;13.71;63.73;100687.00;5094049;28;20043;-70
2022/12/24 02:19:41;;;;;;;31.40;8.98;;;;;;;13.66;63.53;100689.25;5093041;28;20077;-69
2022/12/24 02:22:14;;;;;;;;;;;;;;;13.69;63.68;100689.00;5092822;28;20048;-70
2022/12/24 02:25:09;;;;;;;36.47;9.00;;;;;;;13.73;63.77;100694.97;5094160;28;19963;-70
2022/12/24 02:28:01;;;;;;;33.30;8.88;;;;;;;13.72;63.69;100696.81;5083847;28;20044;-69
2022/12/24 02:30:40;;;;;;;33.33;8.05;;;;;;;13.71;63.68;100697.81;5052496;28;20134;-69
2022/12/24 02:33:18;;;;;;;28.98;8.80;;;;;;;13.71;63.83;100695.09;5080468;28;20062;-69
2022/12/24 02:36:16;;;;;;;33.55;8.65;;;;;;;13.68;63.84;100698.06;5093657;28;20043;-69
2022/12/24 02:38:51;;;;;;;31.13;7.97;;;;;;;13.68;63.75;100696.22;5092959;28;20044;-69
2022/12/24 02:41:25;;;;;;;31.30;8.85;;;;;;;13.70;63.92;100698.78;5094075;28;20075;-69
2022/12/24 02:43:56;;;;;;;34.55;9.10;;;;;;;13.71;63.83;100703.22;5093742;28;20115;-70
2022/12/24 02:46:26;;;;;;;27.02;8.10;;;;;;;13.71;63.95;100700.50;5074728;28;20129;-69
2022/12/24 02:48:55;;;;;;;29.05;8.65;;;;;;;13.72;63.84;100702.22;5073830;28;20063;-70
2022/12/24 02:51:23;;;;;;;42.10;10.55;;;;;;;13.74;63.81;100699.38;5073537;28;20493;-70
2022/12/24 02:53:50;;;;;;;34.25;9.07;;;;;;;13.77;63.80;100702.66;5073198;28;20047;-70
2022/12/24 02:56:39;;;;;;;35.60;9.18;;;;;;;13.77;63.88;100708.06;5074038;28;20482;-70
2022/12/24 02:59:21;;;;;;;37.55;9.80;;;;;;;13.81;64.09;100709.50;5092805;28;20036;-70
2022/12/24 03:02:18;;;;;;;36.65;10.45;;;;;;;13.82;64.10;100704.97;5092077;28;20094;-71
2022/12/24 03:05:06;;;;;;;39.60;9.73;;;;;;;13.82;64.16;100703.13;5092159;28;20044;-69
2022/12/24 03:07:42;;;;;;;34.05;9.82;;;;;;;13.84;64.14;100703.84;5093404;28;20409;-69
2022/12/24 03:10:21;;;;;;;33.63;8.95;;;;;;;13.84;64.20;100703.84;5074842;28;20094;-69
2022/12/24 03:12:51;;;;;;;34.83;9.27;;;;;;;13.83;64.11;100696.75;5072853;28;20044;-70
2022/12/24 03:15:21;;;;;;;33.75;9.25;;;;;;;13.82;63.94;100691.47;5073071;28;20071;-70
2022/12/24 03:17:50;;;;;;;39.92;9.25;;;;;;;13.81;64.19;100698.72;5084946;28;20040;-69
2022/12/24 03:20:22;;;;;;;40.30;9.73;;;;;;;13.80;63.82;100701.56;5092387;28;20421;-70
2022/12/24 03:22:49;;;;;;;32.20;8.90;;;;;;;13.78;64.21;100696.28;5093305;28;20115;-69
2022/12/24 03:25:16;;;;;;;33.47;8.30;;;;;;;13.75;63.72;100703.78;5092094;28;20044;-70
2022/12/24 03:27:43;;;;;;;28.98;8.70;;;;;;;13.74;64.23;100697.53;5096554;28;20036;-70
2022/12/24 03:30:12;;;;;;;26.25;8.93;;;;;;;13.72;64.30;100704.91;5097460;28;20059;-69
2022/12/24 03:32:39;;;;;;;38.10;9.45;;;;;;;13.72;63.97;100706.75;5096308;28;20044;-70
2022/12/24 03:35:07;;;;;;;31.13;8.90;;;;;;;13.71;63.95;100714.00;5097150;28;20130;-70
2022/12/24 03:37:33;;;;;;;29.33;8.10;;;;;;;13.72;64.03;100717.56;5097499;28;20489;-69
2022/12/24 03:40:00;;;;;;;34.38;9.50;;;;;;;13.71;64.09;100714.00;5097373;28;20036;-70
2022/12/24 03:42:26;;;;;;;35.83;8.35;;;;;;;13.68;64.31;100720.50;5096790;28;20036;-70
2022/12/24 03:44:53;;;;;;;35.92;9.50;;;;;;;13.67;64.13;100721.50;5086729;28;20094;-69
2022/12/24 03:47:20;;;;;;;36.03;8.82;;;;;;;13.68;64.33;100725.06;5076898;28;20036;-69
2022/12/24 03:49:46;;;;;;;41.75;9.27;;;;;;;13.69;64.21;100724.06;5076633;28;20486;-69
2022/12/24 03:52:13;;;;;;;29.08;8.85;;;;;;;13.70;64.62;100717.69;5077130;28;20115;-69
2022/12/24 03:54:39;;;;;;;35.50;8.18;;;;;;;13.72;64.23;100722.94;5076521;28;20406;-70
2022/12/24 03:57:06;;;;;;;33.20;9.05;;;;;;;13.74;64.33;100729.06;5086850;28;20509;-69
2022/12/24 03:59:33;;;;;;;33.95;8.57;;;;;;;13.75;64.23;100728.94;5096793;28;20047;-69
2022/12/24 04:01:59;;;;;;;37.15;8.65;;;;;;;13.76;64.36;100724.41;5096495;28;20051;-70
2022/12/24 04:04:26;;;;;;;33.28;9.05;;;;;;;13.77;64.71;100734.22;5096716;28;20113;-70
2022/12/24 04:06:53;;;;;;;31.33;7.93;;;;;;;13.79;64.69;100738.47;5096825;28;20048;-70
2022/12/24 04:09:19;;;;;;;26.85;8.20;;;;;;;13.80;64.26;100745.59;5082281;28;20040;-70
2022/12/24 04:11:46;;;;;;;34.50;8.65;;;;;;;13.81;64.45;100738.34;5075931;28;20048;-69
2022/12/24 04:14:12;;;;;;;33.85;8.00;;;;;;;13.82;64.59;100740.91;5076391;28;20044;-70
2022/12/24 04:16:39;;;;;;;34.80;10.13;;;;;;;13.83;64.82;100739.94;5076262;28;20037;-69
2022/12/24 04:19:05;;;;;;;31.20;10.57;;;;;;;13.84;64.48;100746.19;5076123;28;20056;-70
2022/12/24 04:21:32;;;;;;;29.95;8.75;;;;;;;13.84;64.85;100735.38;5095462;28;20132;-70
2022/12/24 04:23:59;;;;;;;27.00;8.90;;;;;;;13.84;64.87;100755.13;5088930;28;20040;-71
2022/12/24 04:26:25;;;;;;;28.65;9.02;;;;;;;13.86;64.89;100753.16;5078504;28;20040;-70
2022/12/24 04:28:52;;;;;;;27.55;8.65;;;;;;;13.87;64.83;100752.19;5075866;28;20055;-70
2022/12/24 04:31:19;;;;;;;33.63;10.02;;;;;;;13.87;64.70;100752.19;5074876;28;20040;-70
2022/12/24 04:33:46;;;;;;;34.05;9.30;;;;;;;13.87;64.62;100746.78;5075406;28;20070;-71
2022/12/24 04:36:18;;;;;;;34.50;10.05;;;;;;;13.89;64.54;100749.34;5075778;28;20111;-69
2022/12/24 04:38:46;;;;;;;33.40;9.45;;;;;;;13.90;64.60;100754.59;5090852;28;20052;-68
2022/12/24 04:41:18;;;;;;;32.85;10.68;;;;;;;13.91;65.09;100756.31;5076174;28;20116;-70
2022/12/24 04:43:50;;;;;;;30.13;9.20;;;;;;;13.96;64.82;100764.03;5075074;28;20048;-69
2022/12/24 04:46:20;;;;;;;35.85;9.30;;;;;;;13.98;64.95;100759.34;5093006;28;20097;-70
2022/12/24 04:48:48;;;;;;;27.08;8.20;;;;;;;13.99;64.79;100756.50;5095009;28;20046;-69
2022/12/24 04:51:16;;;;;;;37.35;9.70;;;;;;;13.98;64.65;100760.19;5104153;28;20040;-69
2022/12/24 04:53:43;;;;;;;29.38;9.27;;;;;;;13.98;64.88;100765.59;5094387;28;20097;-69
2022/12/24 04:56:16;;;;;;;28.42;9.50;;;;;;;13.96;65.03;100766.72;5094729;28;20036;-71
2022/12/24 04:58:43;;;;;;;26.38;8.20;;;;;;;13.97;65.11;100771.13;5095294;28;20130;-70
2022/12/24 05:01:16;;;;;;;32.08;8.82;;;;;;;13.95;64.84;100770.41;5094336;28;20050;-70
2022/12/24 05:03:43;;;;;;;26.90;7.97;;;;;;;13.95;64.79;100771.25;5095377;28;20066;-70
2022/12/24 05:06:14;;;;;;;37.85;8.40;;;;;;;13.97;65.05;100773.84;5095497;28;20055;-70
2022/12/24 05:08:42;;;;;;;33.83;8.85;;;;;;;13.98;64.93;100776.41;5093806;28;20051;-70
2022/12/24 05:11:13;;;;;;;31.77;8.20;;;;;;;13.99;64.94;100769.16;5075133;28;20071;-70
2022/12/24 05:13:40;;;;;;;34.67;8.50;;;;;;;13.99;64.60;100770.00;5074938;28;20055;-69
2022/12/24 05:16:15;;;;;;;32.70;8.63;;;;;;;13.99;64.86;100779.97;5075369;28;20051;-70
2022/12/24 05:18:42;;;;;;;40.90;9.00;;;;;;;13.98;64.65;100779.09;5088743;28;20037;-69
2022/12/24 05:21:12;;;;;;;27.25;7.97;;;;;;;13.95;64.87;100782.06;5094416;28;20036;-70
2022/12/24 05:26:36;;;;;;;36.45;8.85;;;;;;;13.93;64.49;100773.25;5094938;28;20058;-70
2022/12/24 05:29:04;;;;;;;26.58;8.32;;;;;;;13.91;64.72;100780.63;5095046;28;20036;-69
2022/12/24 05:31:32;;;;;;;30.92;9.00;;;;;;;13.90;64.80;100778.91;5074882;28;20047;-69
2022/12/24 05:33:59;;;;;;;25.05;9.15;;;;;;;13.88;64.67;100771.94;5085507;28;20496;-70
2022/12/24 05:36:26;;;;;;;32.45;8.40;;;;;;;13.88;64.69;100774.63;5094427;28;20044;-70
2022/12/24 05:38:53;;;;;;;23.88;8.23;;;;;;;13.88;64.84;100780.03;5094967;28;20398;-69
2022/12/24 05:41:21;;;;;;;28.67;8.50;;;;;;;13.85;64.76;100781.16;5094468;28;20047;-70
2022/12/24 05:43:48;;;;;;;31.48;7.47;;;;;;;13.88;64.63;100771.94;5094612;28;20093;-69
2022/12/24 05:46:18;;;;;;;27.33;8.00;;;;;;;13.87;64.67;100787.28;5082721;28;20048;-69
2022/12/24 05:48:46;;;;;;;29.73;7.90;;;;;;;13.89;64.93;100796.09;5073915;28;20059;-70
2022/12/24 05:51:17;;;;;;;30.83;9.27;;;;;;;13.90;64.77;100792.41;5074224;28;20033;-70
2022/12/24 05:53:45;;;;;;;27.98;7.28;;;;;;;13.90;64.96;100795.09;5073979;28;20049;-70
2022/12/24 05:56:14;;;;;;;33.03;8.45;;;;;;;13.90;64.57;100783.44;5089769;28;20406;-70
2022/12/24 05:58:42;;;;;;;33.78;9.18;;;;;;;13.90;64.66;100796.94;5072754;28;20041;-70
2022/12/24 06:01:10;;;;;;;25.42;7.93;;;;;;;13.90;64.81;100803.19;5074105;28;20051;-70
2022/12/24 06:03:37;;;;;;;28.13;7.80;;;;;;;13.90;64.86;100815.84;5074104;28;20090;-70
2022/12/24 06:06:07;;;;;;;26.13;7.85;;;;;;;13.92;64.79;100819.28;5073945;28;20052;-70
2022/12/24 06:08:35;;;;;;;31.80;7.90;;;;;;;13.92;64.84;100821.97;5075523;28;20503;-70
2022/12/24 06:11:05;;;;;;;31.02;7.97;;;;;;;13.93;64.66;100818.28;5094350;28;20051;-69
2022/12/24 06:13:32;;;;;;;26.20;7.95;;;;;;;13.93;64.92;100818.28;5093750;28;20490;-70
2022/12/24 06:16:01;;;;;;;26.67;7.78;;;;;;;13.92;64.91;100816.56;5092708;28;20130;-70
2022/12/24 06:18:30;;;;;;;28.80;7.32;;;;;;;13.91;64.47;100825.66;5091821;28;20044;-70
2022/12/24 06:20:58;;;;;;;34.83;7.57;;;;;;;13.92;64.98;100832.78;5093207;28;20032;-69
2022/12/24 06:23:31;;;;;;;32.33;8.43;;;;;;;13.90;64.63;100822.09;5093859;28;20040;-71
2022/12/24 06:26:02;;;;;;;30.58;7.50;;;;;;;13.91;64.73;100829.22;5094125;28;20028;-71
2022/12/24 06:28:30;;;;;;;25.60;6.85;;;;;;;13.90;64.46;100832.91;5093977;28;20481;-69
2022/12/24 06:30:57;;;;;;;30.98;7.47;;;;;;;13.89;64.65;100836.59;5093954;28;20044;-71
2022/12/24 06:33:29;;;;;;;27.63;7.93;;;;;;;13.87;64.34;100841.25;5084923;28;20436;-70
2022/12/24 06:35:56;;;;;;;24.83;7.22;;;;;;;13.86;64.55;100838.69;5073636;28;20540;-70
2022/12/24 06:38:23;;;;;;;30.80;7.78;;;;;;;13.84;64.56;100837.97;5092308;28;20039;-70
2022/12/24 06:40:49;;;;;;;30.92;7.95;;;;;;;13.82;64.57;100845.34;5093927;28;20132;-71
2022/12/24 06:43:16;;;;;;;25.42;7.90;;;;;;;13.81;64.65;100839.09;5093623;28;20127;-70
2022/12/24 06:45:45;;;;;;;23.65;7.20;;;;;;;13.81;64.84;100844.47;5085245;28;20377;-70
2022/12/24 06:48:12;;;;;;;29.95;7.88;;;;;;;13.81;64.55;100855.28;5073413;28;20037;-70
2022/12/24 06:50:39;;;;;;;24.10;7.60;;;;;;;13.83;64.42;100856.00;5073568;28;20486;-69
2022/12/24 06:53:08;;;;;;;31.95;8.13;;;;;;;13.83;64.90;100853.31;5073270;28;20092;-70
2022/12/24 06:55:35;;;;;;;28.48;8.35;;;;;;;13.83;64.33;100858.72;5073582;28;20128;-70
2022/12/24 06:58:02;;;;;;;30.02;8.15;;;;;;;13.85;64.70;100867.53;5079628;28;20106;-70
2022/12/24 07:00:28;;;;;;;23.98;7.75;;;;;;;13.86;64.81;100863.84;5093324;28;20048;-70
2022/12/24 07:02:55;;;;;;;22.52;7.57;;;;;;;13.86;64.80;100868.38;5092498;28;20052;-69
2022/12/24 07:05:22;;;;;;;30.63;8.82;;;;;;;13.83;64.56;100858.72;5093565;28;20543;-70
2022/12/24 07:07:48;;;;;;;21.80;8.68;;;;;;;13.85;64.49;100855.88;5092457;28;20068;-71
2022/12/24 07:10:17;;;;;;;31.15;8.55;;;;;;;13.85;64.43;100863.97;5080930;28;20045;-70
2022/12/24 07:12:44;;;;;;;31.20;9.18;;;;;;;13.86;64.79;100871.09;5072877;28;20040;-71
2022/12/24 07:15:12;;;;;;;31.63;8.13;;;;;;;13.84;64.43;100873.91;5073265;28;20108;-70
2022/12/24 07:17:39;;;;;;;34.85;8.98;;;;;;;13.84;64.71;100876.63;5078421;28;20398;-71
2022/12/24 07:20:07;;;;;;;29.48;7.78;;;;;;;13.83;64.45;100877.59;5093473;28;20039;-70
2022/12/24 07:22:34;;;;;;;24.42;7.93;;;;;;;13.81;64.31;100866.06;5091049;28;20058;-70
2022/12/24 07:25:00;;;;;;;32.92;8.15;;;;;;;13.80;64.68;100875.16;5093458;28;20036;-70
2022/12/24 07:27:27;;;;;;;32.78;9.55;;;;;;;13.80;64.33;100882.41;5093240;28;20044;-70
2022/12/24 07:29:53;;;;;;;27.80;9.00;;;;;;;13.77;64.44;100880.81;5093655;28;20505;-71
2022/12/24 07:32:20;;;;;;;27.73;9.27;;;;;;;13.76;64.29;100878.25;5092585;28;20060;-70
2022/12/24 07:34:46;;;;;;;27.90;9.30;;;;;;;13.75;64.45;100892.72;5090944;28;20485;-69
2022/12/24 07:37:13;;;;;;;27.40;8.65;;;;;;;13.71;64.13;100894.81;5091016;28;20569;-68
2022/12/24 07:39:39;;;;;;;25.63;8.63;;;;;;;13.68;64.17;100908.56;5093172;28;20044;-70
2022/12/24 07:42:07;;;;;;;32.95;10.43;;;;;;;13.62;64.41;100909.94;5092599;28;20536;-69
2022/12/24 07:44:34;;;;;;;30.27;8.18;;;;;;;13.61;64.13;100924.41;5092562;28;20040;-69
2022/12/24 07:47:01;;;;;;;26.90;8.75;;;;;;;13.59;64.21;100923.69;5068318;28;20393;-69
2022/12/24 07:49:28;;;;;;;31.10;9.63;;;;;;;13.59;64.20;100925.53;5091382;28;20471;-70
2022/12/24 07:51:55;;;;;;;27.25;9.02;;;;;;;13.58;63.92;100927.38;5092284;28;20100;-69
2022/12/24 07:54:21;;;;;;;35.55;9.80;;;;;;;13.57;64.01;100930.19;5092576;28;20076;-70
2022/12/24 07:56:48;;;;;;;31.30;9.05;;;;;;;13.57;64.03;100930.19;5091579;27;20051;-69
2022/12/24 07:59:15;;;;;;;29.38;8.32;;;;;;;13.54;64.34;100936.69;5091547;28;20123;-69
2022/12/24 08:01:42;;;;;;;28.08;8.95;;;;;;;13.53;63.96;100950.31;5092242;28;20501;-70
2022/12/24 08:04:09;;;;;;;35.00;9.48;;;;;;;13.52;64.19;100956.69;5092712;28;20123;-70
2022/12/24 08:06:36;;;;;;;36.10;9.52;;;;;;;13.52;63.81;100959.41;5092701;28;20498;-69
2022/12/24 08:09:03;;;;;;;34.10;9.90;;;;;;;13.49;63.83;100974.00;5090675;28;20044;-72
2022/12/24 08:11:29;;;;;;;25.65;9.07;;;;;;;13.47;64.01;100972.41;5091452;28;20032;-71
2022/12/24 08:13:56;;;;;;;26.38;8.73;;;;;;;13.46;64.05;100987.72;5095794;28;20044;-70
2022/12/24 08:16:23;;;;;;;27.75;8.35;;;;;;;13.45;64.07;100980.63;5096477;28;20378;-70
2022/12/24 08:18:49;;;;;;;31.33;9.23;;;;;;;13.46;64.11;100981.47;5095288;28;20040;-69
2022/12/24 08:21:16;;;;;;;28.75;9.07;;;;;;;13.46;63.76;100994.97;5078089;28;20036;-70
2022/12/24 08:23:42;;;;;;;30.92;8.60;;;;;;;13.46;64.20;100997.66;5075687;28;20040;-70
2022/12/24 08:26:09;;;;;;;27.98;8.90;;;;;;;13.47;64.35;101002.94;5074592;28;20052;-70
2022/12/24 08:28:36;;;;;;;34.50;9.07;;;;;;;13.49;64.07;101000.97;5075602;28;20040;-71
2022/12/24 08:31:03;;;;;;;30.40;8.80;;;;;;;13.50;64.15;101012.63;5077700;28;20040;-70
2022/12/24 08:33:31;;;;;;;32.30;8.70;;;;;;;13.50;64.05;101012.63;5094778;28;20044;-71
2022/12/24 08:35:59;;;;;;;32.47;9.15;;;;;;;13.50;63.98;101009.94;5093090;28;20043;-70
2022/12/24 08:38:26;;;;;;;26.00;8.85;;;;;;;13.51;64.17;101011.66;5095796;28;20040;-70
2022/12/24 08:40:54;;;;;;;33.00;8.50;;;;;;;13.50;64.26;101008.09;5094614;28;20497;-68
2022/12/24 08:43:21;;;;;;;32.35;9.32;;;;;;;13.50;64.12;101020.72;5094418;28;20053;-69
2022/12/24 08:45:48;;;;;;;32.45;8.93;;;;;;;13.49;64.15;101011.75;5093646;28;20432;-69
2022/12/24 08:48:16;;;;;;;29.70;9.30;;;;;;;13.47;64.00;101004.78;5095414;28;20093;-69
2022/12/24 08:50:43;;;;;;;29.80;8.73;;;;;;;13.46;64.25;101017.41;5074988;28;20051;-69
2022/12/24 08:53:09;;;;;;;28.98;9.30;;;;;;;13.47;64.59;101010.16;5075116;28;20494;-69
2022/12/24 08:55:36;;;;;;;37.25;9.55;;;;;;;13.48;64.39;101023.53;5075471;28;20041;-69
2022/12/24 08:58:03;;;;;;;28.85;8.63;;;;;;;13.50;64.58;101028.81;5074957;28;20037;-68
2022/12/24 09:00:30;;;;;;;28.58;9.27;;;;;;;13.49;64.45;101027.97;5093494;28;20440;-69
2022/12/24 09:03:00;;;;;;;27.95;8.77;;;;;;;13.51;64.36;101034.09;5106925;27;20130;-68
2022/12/24 09:05:28;;;;;;;28.83;8.25;;;;;;;13.53;64.64;101028.56;5111444;28;20100;-68
2022/12/24 09:07:54;;;;;;;33.15;8.88;;;;;;;13.53;64.66;101037.53;5095339;28;20054;-68
2022/12/24 09:10:21;;;;;;;26.35;8.55;;;;;;;13.54;64.78;101044.63;5075598;28;20143;-68
2022/12/24 09:12:48;;;;;;;32.42;9.02;;;;;;;13.56;64.79;101047.22;5094491;28;20581;-68
2022/12/24 09:15:14;;;;;;;37.60;8.65;;;;;;;13.58;64.62;101053.34;5091859;28;20055;-68
2022/12/24 09:17:41;;;;;;;32.53;8.75;;;;;;;13.59;64.82;101053.22;5092849;28;20135;-68
2022/12/24 09:20:09;;;;;;;32.20;9.23;;;;;;;13.62;64.72;101060.22;5093193;28;20050;-68
2022/12/24 09:22:38;;;;;;;37.20;8.50;;;;;;;13.67;64.56;101050.75;5093343;28;20043;-68
2022/12/24 09:25:05;;;;;;;33.45;9.65;;;;;;;13.70;64.67;101063.16;5093416;28;20040;-68
2022/12/24 09:27:32;;;;;;;26.67;8.60;;;;;;;13.76;64.65;101076.16;5093362;28;20040;-68
2022/12/24 09:29:59;;;;;;;34.53;8.75;;;;;;;13.82;65.26;101074.78;5094084;28;20040;-68
2022/12/24 09:32:25;;;;;;;33.17;8.50;;;;;;;13.85;64.85;101080.81;5094441;28;20040;-68
2022/12/24 09:34:52;;;;;;;44.05;9.48;;;;;;;13.91;64.92;101087.53;5094838;28;20044;-68
2022/12/24 09:37:19;;;;;;;29.42;9.77;;;;;;;13.96;65.12;101090.72;5094864;28;20036;-69
2022/12/24 09:39:45;;;;;;;29.23;9.52;;;;;;;13.99;65.09;101095.88;5094539;28;20533;-72
2022/12/24 09:42:38;;;;;;;33.83;9.32;;;;;;;13.99;65.03;101085.94;5094494;28;20048;-72
2022/12/24 09:45:14;;;;;;;28.90;8.98;;;;;;;14.04;65.03;101101.75;5093099;28;20090;-73
2022/12/24 09:47:50;;;;;;;28.13;9.32;;;;;;;14.07;64.93;101103.34;5092125;28;20094;-72
2022/12/24 09:50:22;;;;;;;33.00;9.40;;;;;;;14.09;64.90;101107.66;5094045;28;20040;-73
2022/12/24 09:52:51;;;;;;;30.50;9.15;;;;;;;14.12;64.97;101110.13;5092659;28;20067;-72
2022/12/24 09:55:36;;;;;;;31.13;9.13;;;;;;;14.15;64.55;101101.78;5094244;28;20081;-72
2022/12/24 09:58:05;;;;;;;;;;;;;;;14.19;64.53;101105.09;5094974;28;20097;-73
2022/12/24 10:00:36;;;;;;;34.22;9.43;;;;;;;14.22;64.52;101102.13;5094002;28;19927;-73
2022/12/24 10:03:14;;;;;;;29.25;8.90;;;;;;;14.20;64.60;101101.41;5093945;28;20486;-72
2022/12/24 10:05:56;;;;;;;34.10;10.02;;;;;;;14.23;64.70;101109.25;5093147;28;20036;-72
2022/12/24 10:08:36;;;;;;;30.63;9.30;;;;;;;14.24;64.67;101122.63;5093825;28;20052;-72
2022/12/24 10:11:36;;;;;;;35.13;9.05;;;;;;;14.29;64.92;101127.66;5094343;28;20067;-73
2022/12/24 10:14:16;;;;;;;32.97;9.98;;;;;;;14.35;64.81;101121.75;5093954;28;20046;-73
2022/12/24 10:17:16;;;;;;;35.42;9.45;;;;;;;14.40;64.87;101133.03;5092863;28;20048;-73
2022/12/24 10:19:53;;;;;;;34.28;9.85;;;;;;;14.45;64.68;101129.97;5093818;28;20042;-73
2022/12/24 10:22:48;;;;;;;34.85;10.27;;;;;;;14.49;64.70;101139.56;5092274;28;20516;-72
2022/12/24 10:25:27;;;;;;;31.83;10.80;;;;;;;14.52;64.66;101134.75;5073820;28;20041;-72
2022/12/24 10:27:59;;;;;;;33.15;9.82;;;;;;;14.56;64.46;101128.09;5072383;28;20045;-73
2022/12/24 10:30:27;;;;;;;28.80;10.23;;;;;;;14.60;64.53;101129.56;5072035;28;20043;-72
2022/12/24 10:32:54;;;;;;;29.27;9.95;;;;;;;14.65;64.93;101123.78;5077150;28;20375;-72
2022/12/24 10:35:44;;;;;;;34.72;10.48;;;;;;;14.68;64.79;101120.81;5093167;28;20486;-73
2022/12/24 10:38:11;;;;;;;34.35;10.20;;;;;;;14.72;64.62;101121.41;5093690;28;20090;-73
2022/12/24 10:40:44;;;;;;;33.85;10.43;;;;;;;14.76;64.20;101122.88;5072723;28;20483;-72
2022/12/24 10:43:18;;;;;;;33.75;11.50;;;;;;;14.80;64.35;101118.91;5077549;28;20083;-73
2022/12/24 10:45:58;;;;;;;26.92;9.40;;;;;;;14.85;64.82;101128.34;5092412;28;20048;-72
2022/12/24 10:48:29;;;;;;;29.17;9.68;;;;;;;14.91;64.73;101129.72;5093324;28;20036;-72
2022/12/24 10:50:58;;;;;;;35.88;10.30;;;;;;;14.94;64.19;101132.16;5093697;28;20044;-71
2022/12/24 10:53:31;;;;;;;33.22;10.25;;;;;;;14.94;64.23;101134.88;5092389;28;20049;-72
2022/12/24 10:56:12;;;;;;;30.08;9.25;;;;;;;14.93;63.89;101133.16;5092295;28;20567;-73
2022/12/24 10:58:44;;;;;;;31.83;9.90;;;;;;;14.92;63.96;101126.03;5093601;28;20525;-72
2022/12/24 11:01:12;;;;;;;30.65;9.95;;;;;;;14.92;63.66;101128.72;5092969;28;20035;-72
2022/12/24 11:03:39;;;;;;;29.50;9.45;;;;;;;14.92;64.08;101139.53;5074311;28;20044;-72
2022/12/24 11:06:13;;;;;;;36.40;10.30;;;;;;;14.91;64.08;101127.88;5092117;28;20051;-72
2022/12/24 11:08:42;;;;;;;33.05;11.00;;;;;;;14.91;63.67;101135.13;5092247;28;20036;-72
2022/12/24 11:11:15;;;;;;;30.70;9.40;;;;;;;14.92;63.74;101135.00;5093177;28;20085;-72
2022/12/24 11:13:48;;;;;;;29.75;10.55;;;;;;;14.95;63.71;101139.28;5091994;28;20127;-71
2022/12/24 11:16:29;;;;;;;35.78;10.85;;;;;;;14.95;63.67;101139.28;5093296;28;20044;-72
2022/12/24 11:18:58;;;;;;;30.67;10.45;;;;;;;14.97;63.99;101129.19;5091855;28;20048;-71
2022/12/24 11:21:34;;;;;;;29.00;10.10;;;;;;;14.97;63.27;101141.88;5093528;28;20036;-71
2022/12/24 11:24:06;;;;;;;33.70;11.02;;;;;;;14.95;63.39;101144.69;5091938;28;20452;-74
2022/12/24 11:26:33;;;;;;;27.58;9.38;;;;;;;14.96;63.62;101140.16;5093063;28;20551;-74
2022/12/24 11:29:19;;;;;;;33.10;10.85;;;;;;;14.97;63.42;101140.00;5092471;28;20074;-70
2022/12/24 11:31:46;;;;;;;32.58;10.32;;;;;;;15.01;63.67;101130.66;5093109;28;20036;-72
2022/12/24 11:34:27;;;;;;;28.20;9.80;;;;;;;15.03;63.52;101142.19;5078246;28;20044;-72